Time;durP1;ratioP1;P1;durP2;ratioP2;P2;SDS_P1;SDS_P2;PMS_P1;PMS_P2;Temp;Humidity;BMP_temperature;BMP_pressure;BME280_temperature;BME280_humidity;BME280_pressure;Samples;Min_cycle;Max_cycle;Signal;HPM_P1;HPM_P2
2022/02/19 00:03:27;;;;;;;7.60;2.30;;;;;;;12.26;51.03;97253.68;231745;1227;138191;-61
2022/02/19 00:08:30;;;;;;;4.10;1.90;;;;;;;12.30;50.82;97250.27;231659;1228;138818;-61
2022/02/19 00:13:33;;;;;;;8.00;2.20;;;;;;;12.37;51.00;97244.82;231741;1228;139428;-61
2022/02/19 00:18:36;;;;;;;4.60;2.00;;;;;;;12.47;50.63;97260.48;231812;1228;139263;-62
2022/02/19 00:23:40;;;;;;;5.30;1.80;;;;;;;12.68;50.35;97270.19;231818;1227;138963;-61
2022/02/19 00:28:43;;;;;;;4.20;1.80;;;;;;;12.83;50.46;97293.96;231778;1227;139828;-61
2022/02/19 00:33:46;;;;;;;6.00;2.30;;;;;;;12.95;50.37;97294.05;231941;1226;139219;-62
2022/02/19 00:38:51;;;;;;;4.20;2.10;;;;;;;13.01;50.34;97317.77;231805;1227;137982;-60
2022/02/19 00:43:55;;;;;;;5.30;1.90;;;;;;;13.15;50.16;97357.75;231792;1227;138765;-61
2022/02/19 00:48:59;;;;;;;25.80;14.10;;;;;;;13.27;49.98;97379.95;231723;1227;139319;-61
2022/02/19 00:54:02;;;;;;;7.60;1.90;;;;;;;13.31;49.76;97385.21;231804;1227;139043;-60
2022/02/19 00:59:05;;;;;;;6.00;2.00;;;;;;;13.27;49.57;97399.89;231695;1227;139194;-58
2022/02/19 01:04:08;;;;;;;4.00;1.70;;;;;;;13.19;49.64;97409.00;231763;1227;139453;-59
2022/02/19 01:09:11;;;;;;;5.50;2.30;;;;;;;13.11;49.67;97430.29;231816;1227;138836;-61
2022/02/19 01:14:15;;;;;;;3.90;1.50;;;;;;;13.02;49.84;97432.20;231843;1227;139137;-60
2022/02/19 01:19:18;;;;;;;8.70;1.50;;;;;;;12.85;50.02;97429.27;231920;1227;139020;-59
2022/02/19 01:24:22;;;;;;;4.60;1.10;;;;;;;12.63;49.80;97464.04;231897;1227;138809;-62
2022/02/19 01:29:30;;;;;;;2.40;1.10;;;;;;;12.44;49.93;97487.13;231807;1227;138676;-60
2022/02/19 01:34:34;;;;;;;2.60;1.00;;;;;;;12.24;50.18;97504.08;231955;1226;138964;-60
2022/02/19 01:39:37;;;;;;;2.50;1.20;;;;;;;12.05;50.45;97518.48;231913;1227;138716;-61
2022/02/19 01:44:47;;;;;;;1.60;1.00;;;;;;;11.82;50.50;97486.48;231818;1227;139052;-63
2022/02/19 01:49:51;;;;;;;2.90;1.30;;;;;;;11.62;51.17;97512.83;231910;1227;138403;-62
2022/02/19 01:54:55;;;;;;;2.40;0.90;;;;;;;11.42;51.51;97498.63;231893;1227;139158;-62
2022/02/19 02:00:24;;;;;;;1.30;0.90;;;;;;;11.29;50.77;97472.48;231853;1227;138912;-61
2022/02/19 02:05:36;;;;;;;4.50;0.90;;;;;;;11.21;50.47;97486.09;231656;1227;139050;-61
2022/02/19 02:10:40;;;;;;;2.40;1.10;;;;;;;11.14;50.76;97499.87;231855;1229;138768;-60
2022/02/19 02:15:51;;;;;;;1.50;1.10;;;;;;;11.08;51.15;97505.33;231962;1228;138742;-62
2022/02/19 02:21:01;;;;;;;3.00;1.20;;;;;;;11.05;51.41;97507.23;231904;1228;138885;-62
2022/02/19 02:26:05;;;;;;;2.50;1.30;;;;;;;11.02;51.31;97501.27;231875;1228;139147;-61
2022/02/19 02:31:08;;;;;;;2.50;1.10;;;;;;;11.02;50.87;97520.32;231646;1228;138830;-62
2022/02/19 02:36:11;;;;;;;1.20;0.70;;;;;;;11.01;50.13;97534.96;231849;1228;139606;-59
2022/02/19 02:41:17;;;;;;;1.00;0.70;;;;;;;11.02;49.11;97537.15;231865;1228;139029;-60
2022/02/19 02:46:20;;;;;;;1.00;0.50;;;;;;;11.05;48.52;97541.85;231875;1228;138792;-56
2022/02/19 02:51:25;;;;;;;1.40;0.60;;;;;;;11.07;47.83;97559.06;231988;1228;138590;-60
2022/02/19 02:56:28;;;;;;;1.40;0.70;;;;;;;11.07;47.45;97560.13;231873;1228;139291;-56
2022/02/19 03:08:48;;;;;;;1.70;0.90;;;;;;;11.11;46.89;97575.23;231661;1228;140210;-60
2022/02/19 03:13:51;;;;;;;2.20;0.90;;;;;;;11.10;46.94;97582.39;231846;1228;138665;-62
2022/02/19 03:18:54;;;;;;;2.20;1.20;;;;;;;11.10;47.05;97586.81;231669;1230;138743;-58
2022/02/19 03:23:58;;;;;;;4.50;1.00;;;;;;;11.11;47.12;97606.25;231853;1228;138644;-60
2022/02/19 03:29:01;;;;;;;3.30;1.30;;;;;;;11.12;46.60;97608.99;231798;1229;138484;-58
2022/02/19 03:34:06;;;;;;;3.90;1.10;;;;;;;11.09;46.17;97627.20;231851;1228;139405;-61
2022/02/19 03:39:09;;;;;;;2.50;1.10;;;;;;;11.05;45.51;97641.55;231853;1228;138948;-60
2022/02/19 03:44:13;;;;;;;2.20;0.90;;;;;;;11.00;45.08;97654.05;231850;1228;139331;-59
2022/02/19 03:49:21;;;;;;;5.60;0.90;;;;;;;10.95;44.73;97668.00;231788;1228;139010;-60
2022/02/19 03:54:25;;;;;;;1.20;0.70;;;;;;;10.91;44.70;97665.49;231703;1228;139313;-59
2022/02/19 03:59:28;;;;;;;3.00;1.00;;;;;;;10.90;44.52;97666.83;231680;1229;138702;-59
2022/02/19 04:04:33;;;;;;;1.60;0.90;;;;;;;10.86;44.31;97688.10;231762;1229;140682;-62
2022/02/19 04:09:36;;;;;;;1.90;0.70;;;;;;;10.84;43.94;97691.33;231917;1227;138569;-59
2022/02/19 04:14:39;;;;;;;1.50;0.60;;;;;;;10.79;43.44;97691.38;231821;1227;139196;-60
2022/02/19 04:19:43;;;;;;;3.60;0.90;;;;;;;10.70;43.16;97690.86;231875;1228;139466;-60
2022/02/19 04:24:47;;;;;;;7.70;0.80;;;;;;;10.63;43.12;97693.93;231890;1228;138845;-60
2022/02/19 04:29:55;;;;;;;26.30;19.50;;;;;;;10.52;42.52;97696.44;231851;1228;138577;-59
2022/02/19 04:34:59;;;;;;;4.70;2.20;;;;;;;10.53;42.90;97705.30;231818;1228;139348;-60
2022/02/19 04:40:05;;;;;;;1.70;0.80;;;;;;;10.55;42.60;97707.77;231944;1228;139404;-60
2022/02/19 04:45:10;;;;;;;;;;;;;;;10.53;42.51;97718.20;231853;1228;138885;-60
2022/02/19 04:50:19;;;;;;;3.30;1.50;;;;;;;10.55;42.67;97723.58;231901;1228;126242;-59
2022/02/19 04:55:25;;;;;;;;;;;;;;;10.51;42.13;97728.52;231872;1228;139009;-59
2022/02/19 05:00:29;;;;;;;1.30;0.50;;;;;;;10.42;42.00;97735.05;231907;1228;125421;-60
2022/02/19 05:05:53;;;;;;;1.90;0.50;;;;;;;10.37;41.88;97753.96;231806;1228;139224;-58
2022/02/19 05:10:56;;;;;;;143.20;92.40;;;;;;;10.32;41.82;97749.75;231788;1228;138626;-58
2022/02/19 05:16:08;;;;;;;2.90;1.50;;;;;;;10.33;42.09;97756.61;231968;1228;139819;-59
2022/02/19 05:21:15;;;;;;;1.70;0.80;;;;;;;10.24;41.86;97776.03;231858;1228;138720;-58
2022/02/19 05:26:22;;;;;;;1.80;0.80;;;;;;;10.16;41.58;97779.48;231868;1229;139362;-57
2022/02/19 05:31:26;;;;;;;2.90;0.90;;;;;;;10.10;41.64;97786.58;231748;1228;138888;-58
2022/02/19 05:36:43;;;;;;;2.60;0.70;;;;;;;10.03;41.59;97795.83;231856;1228;139066;-59
2022/02/19 05:41:47;;;;;;;3.10;0.80;;;;;;;9.98;41.87;97795.36;231868;1228;139153;-58
2022/02/19 05:46:55;;;;;;;4.00;0.80;;;;;;;9.93;41.68;97800.70;231825;1228;138564;-59
2022/02/19 05:52:00;;;;;;;1.80;0.80;;;;;;;9.85;41.31;97797.07;231801;1228;138487;-60
2022/02/19 05:57:10;;;;;;;2.60;0.70;;;;;;;9.76;41.57;97793.77;231854;1228;138846;-60
2022/02/19 06:02:13;;;;;;;2.30;0.70;;;;;;;9.71;41.74;97795.14;231829;1228;138446;-59
2022/02/19 06:07:17;;;;;;;4.20;1.20;;;;;;;9.67;41.69;97807.82;231812;1228;138389;-54
2022/02/19 06:12:20;;;;;;;3.60;0.80;;;;;;;9.62;41.52;97821.02;231808;1228;138524;-56
2022/02/19 06:17:28;;;;;;;2.40;0.80;;;;;;;9.57;41.53;97830.05;231847;1228;139676;-59
2022/02/19 06:22:31;;;;;;;2.80;0.90;;;;;;;9.52;41.21;97840.56;231790;1228;138720;-59
2022/02/19 06:27:44;;;;;;;1.80;0.90;;;;;;;9.48;41.54;97851.50;231831;1229;138989;-59
2022/02/19 06:32:57;;;;;;;6.50;1.20;;;;;;;9.47;41.53;97866.79;231623;1228;137938;-61
2022/02/19 06:38:00;;;;;;;5.50;0.80;;;;;;;9.48;41.50;97880.67;231971;1228;138349;-58
2022/02/19 06:43:05;;;;;;;1.90;0.90;;;;;;;9.47;41.25;97883.45;231769;1228;138766;-60
2022/02/19 06:48:09;;;;;;;4.10;1.00;;;;;;;9.43;41.37;97893.15;231869;1228;138688;-62
2022/02/19 06:53:13;;;;;;;3.40;1.00;;;;;;;9.40;41.40;97898.11;231683;1228;138778;-61
2022/02/19 06:58:16;;;;;;;5.30;1.00;;;;;;;9.39;41.61;97896.83;231803;1228;138383;-59
2022/02/19 07:03:26;;;;;;;3.50;1.30;;;;;;;9.40;41.47;97902.75;231848;1228;138493;-61
2022/02/19 07:08:37;;;;;;;3.50;1.10;;;;;;;9.41;41.57;97909.90;231720;1228;138846;-60
2022/02/19 07:13:41;;;;;;;3.20;1.20;;;;;;;9.41;41.32;97916.79;231305;1228;138643;-60
2022/02/19 07:18:44;;;;;;;4.10;1.20;;;;;;;9.43;41.44;97927.79;231829;1228;138447;-61
2022/02/19 07:23:50;;;;;;;4.20;1.20;;;;;;;9.46;41.38;97943.99;231794;1229;139227;-59
2022/02/19 07:28:57;;;;;;;3.30;1.10;;;;;;;9.44;41.06;97939.42;231808;1228;139281;-61
2022/02/19 07:34:01;;;;;;;3.80;1.20;;;;;;;9.43;41.24;97954.34;231945;1228;138655;-62
2022/02/19 07:39:09;;;;;;;4.90;1.40;;;;;;;9.45;41.33;97951.39;231837;1228;138473;-60
2022/02/19 07:44:15;;;;;;;5.50;1.40;;;;;;;9.52;41.29;97965.74;231793;1228;138891;-60
2022/02/19 08:00:45;;;;;;;3.90;1.30;;;;;;;9.64;40.83;97974.91;231795;1228;138935;-62
2022/02/19 08:05:50;;;;;;;5.80;1.70;;;;;;;9.66;40.82;97984.46;231869;1229;138591;-64
2022/02/19 08:10:54;;;;;;;8.60;4.50;;;;;;;9.67;40.17;97998.91;231874;1228;138365;-62
2022/02/19 08:15:57;;;;;;;5.90;1.20;;;;;;;9.64;40.21;98007.83;231970;1228;138993;-61
2022/02/19 08:21:00;;;;;;;6.20;1.20;;;;;;;9.59;39.48;98009.30;231845;1228;139085;-63
2022/02/19 08:26:03;;;;;;;4.50;1.10;;;;;;;9.54;39.08;98053.96;231850;1228;137966;-60
2022/02/19 08:31:06;;;;;;;4.30;1.50;;;;;;;9.54;39.32;98040.48;231874;1228;139690;-60
2022/02/19 08:36:09;;;;;;;5.80;1.40;;;;;;;9.59;39.25;98044.38;231873;1228;138355;-58
2022/02/19 08:41:12;;;;;;;6.30;1.50;;;;;;;9.66;39.18;98059.79;231894;1228;139207;-60
2022/02/19 08:46:15;;;;;;;4.10;1.40;;;;;;;9.72;39.14;98050.27;231936;1228;138227;-61
2022/02/19 08:51:18;;;;;;;4.90;1.40;;;;;;;9.77;38.67;98071.54;231915;1228;139320;-60
2022/02/19 08:56:21;;;;;;;5.70;1.40;;;;;;;9.81;38.36;98074.10;231149;1228;138201;-61
2022/02/19 09:01:27;;;;;;;6.30;1.40;;;;;;;9.77;38.55;98071.20;231836;1228;139672;-63
2022/02/19 09:06:30;;;;;;;;;;;;;;;9.70;37.91;98095.94;231877;1228;138327;-62
2022/02/19 09:11:34;;;;;;;7.40;1.40;;;;;;;9.59;37.78;98083.35;231930;1228;125279;-63
2022/02/19 09:16:37;;;;;;;4.50;1.20;;;;;;;9.54;37.71;98102.62;231771;1228;138237;-61
2022/02/19 09:21:42;;;;;;;8.30;1.50;;;;;;;9.60;37.83;98098.50;231994;1230;138398;-61
2022/02/19 09:26:46;;;;;;;6.40;1.10;;;;;;;9.68;37.78;98113.64;231857;1228;138658;-59
2022/02/19 09:31:48;;;;;;;3.40;1.20;;;;;;;9.78;37.52;98124.28;231745;1228;138268;-58
2022/02/19 09:36:51;;;;;;;6.00;1.50;;;;;;;9.82;37.08;98136.58;231858;1229;138759;-60
2022/02/19 09:41:59;;;;;;;6.20;1.50;;;;;;;9.77;36.94;98151.95;231829;1228;138958;-60
2022/02/19 09:47:04;;;;;;;4.90;1.40;;;;;;;9.80;36.93;98157.77;231782;1229;139294;-61
2022/02/19 09:52:07;;;;;;;6.00;1.20;;;;;;;9.83;36.62;98165.73;231971;1229;139572;-61
2022/02/19 09:57:11;;;;;;;6.60;1.40;;;;;;;9.91;36.72;98183.52;231830;1229;139606;-59
2022/02/19 10:02:14;;;;;;;4.50;1.20;;;;;;;9.98;36.58;98191.18;231637;1229;138776;-60
2022/02/19 10:07:18;;;;;;;5.00;0.90;;;;;;;9.98;36.15;98188.50;231820;1229;138433;-60
2022/02/19 10:12:21;;;;;;;5.90;1.40;;;;;;;10.07;36.21;98195.27;231707;1228;138472;-62
2022/02/19 10:17:26;;;;;;;3.10;1.00;;;;;;;10.17;35.71;98201.50;231815;1228;138717;-62
2022/02/19 10:22:35;;;;;;;4.10;1.20;;;;;;;10.15;35.32;98212.25;231951;1229;138961;-63
2022/02/19 10:28:04;;;;;;;4.80;1.00;;;;;;;10.10;35.08;98219.37;231825;1228;139489;-62
2022/02/19 10:33:09;;;;;;;4.00;1.40;;;;;;;10.04;35.06;98232.73;231824;1229;139112;-62
2022/02/19 10:38:15;;;;;;;4.90;1.50;;;;;;;9.99;35.17;98261.98;231855;1229;138215;-63
2022/02/19 10:43:25;;;;;;;4.70;1.20;;;;;;;10.00;35.73;98244.40;231866;1229;138381;-60
2022/02/19 10:48:33;;;;;;;7.00;1.40;;;;;;;9.99;35.52;98263.91;231823;1229;139826;-64
2022/02/19 10:53:37;;;;;;;4.10;1.20;;;;;;;9.97;35.45;98279.46;231822;1230;137974;-61
2022/02/19 10:59:09;;;;;;;6.70;1.40;;;;;;;10.08;35.46;98273.59;231916;1229;138002;-62
2022/02/19 11:04:15;;;;;;;6.10;1.20;;;;;;;10.26;35.77;98275.63;231937;1228;138870;-63
2022/02/19 11:09:18;;;;;;;5.50;1.40;;;;;;;10.46;35.47;98290.50;231829;1228;138452;-63
2022/02/19 11:14:21;;;;;;;5.30;1.40;;;;;;;10.44;34.95;98287.25;231737;1228;138967;-63
2022/02/19 11:19:24;;;;;;;5.80;1.60;;;;;;;10.44;35.16;98296.68;231722;1229;138565;-61
2022/02/19 11:24:29;;;;;;;5.00;1.30;;;;;;;10.39;34.90;98305.55;231834;1229;139047;-63
2022/02/19 11:29:33;;;;;;;7.10;1.60;;;;;;;10.34;35.22;98309.61;231772;1229;138795;-63
2022/02/19 11:34:36;;;;;;;4.40;1.40;;;;;;;10.43;35.38;98324.60;231916;1229;139388;-62
2022/02/19 11:40:19;;;;;;;6.00;1.00;;;;;;;10.50;35.04;98344.46;231826;1229;138128;-61
2022/02/19 11:45:31;;;;;;;31.60;15.60;;;;;;;10.47;34.71;98341.33;231824;1229;138865;-60
2022/02/19 11:50:37;;;;;;;3.80;1.40;;;;;;;10.49;34.48;98351.83;231471;1227;139406;-59
2022/02/19 11:55:42;;;;;;;3.10;1.00;;;;;;;10.41;34.23;98363.54;231293;1229;140271;-60
2022/02/19 12:00:51;;;;;;;;;;;;;;;10.49;34.30;98356.79;231210;1230;138441;-60
2022/02/19 12:06:13;;;;;;;3.90;1.20;;;;;;;10.52;34.45;98353.59;231249;1230;125124;-60
2022/02/19 12:11:21;;;;;;;7.30;1.60;;;;;;;10.54;34.29;98368.81;231251;1230;138942;-58
2022/02/19 12:16:39;;;;;;;5.90;1.50;;;;;;;10.60;34.37;98355.79;231285;1228;139333;-59
2022/02/19 12:21:45;;;;;;;9.00;3.90;;;;;;;10.65;34.62;98360.20;231220;1228;139105;-60
2022/02/19 12:32:06;;;;;;;8.10;1.60;;;;;;;10.82;34.44;98368.21;231191;1229;138935;-59
2022/02/19 12:37:10;;;;;;;3.50;1.30;;;;;;;10.84;34.41;98367.86;231188;1229;139036;-60
2022/02/19 12:42:23;;;;;;;3.20;1.10;;;;;;;10.94;34.73;98374.05;231209;1228;138880;-58
2022/02/19 12:47:27;;;;;;;3.80;1.60;;;;;;;11.11;34.66;98377.06;231135;1230;138908;-61
2022/02/19 12:52:30;;;;;;;5.10;1.70;;;;;;;11.26;34.49;98391.34;231322;1229;138656;-59
2022/02/19 12:57:33;;;;;;;4.80;1.40;;;;;;;11.35;34.36;98392.84;231208;1229;138726;-59
2022/02/19 13:02:36;;;;;;;5.10;1.60;;;;;;;11.33;34.14;98401.66;231146;1229;139826;-59
2022/02/19 13:07:40;;;;;;;4.20;1.40;;;;;;;11.26;34.04;98410.55;231192;1229;139201;-58
2022/02/19 13:12:43;;;;;;;3.70;1.10;;;;;;;11.07;33.94;98424.89;231206;1229;139102;-58
2022/02/19 13:17:53;;;;;;;5.10;1.40;;;;;;;10.83;33.82;98424.36;231221;1230;138853;-59
2022/02/19 13:22:56;;;;;;;4.10;1.50;;;;;;;10.56;33.88;98444.46;231345;1228;138611;-59
2022/02/19 13:28:09;;;;;;;4.20;1.20;;;;;;;10.34;33.77;98450.98;231233;1229;138544;-62
2022/02/19 13:33:12;;;;;;;5.10;1.10;;;;;;;10.18;34.01;98461.27;231262;1230;140543;-59
2022/02/19 13:38:16;;;;;;;4.20;1.30;;;;;;;9.97;34.47;98477.27;231182;1229;138626;-60
2022/02/19 13:43:19;;;;;;;3.70;1.20;;;;;;;9.85;34.39;98479.27;231221;1229;138596;-60
2022/02/19 13:48:30;;;;;;;5.10;1.10;;;;;;;9.77;34.59;98481.98;231662;1229;139086;-60
2022/02/19 13:53:36;;;;;;;3.10;1.20;;;;;;;9.69;34.84;98511.20;231788;1228;140142;-61
2022/02/19 13:58:42;;;;;;;2.20;1.00;;;;;;;9.52;35.40;98516.76;231793;1228;138873;-60
2022/02/19 14:03:47;;;;;;;3.50;1.10;;;;;;;9.39;35.74;98514.41;231786;1228;139550;-60
2022/02/19 14:09:09;;;;;;;1.90;1.00;;;;;;;9.34;35.78;98527.35;231772;1228;140182;-59
2022/02/19 14:14:12;;;;;;;3.10;1.20;;;;;;;9.33;35.94;98552.91;231735;1228;139448;-59
2022/02/19 14:19:15;;;;;;;3.50;1.20;;;;;;;9.27;36.00;98561.59;231782;1228;138298;-60
2022/02/19 14:24:19;;;;;;;7.90;2.10;;;;;;;9.27;36.50;98557.19;231755;1228;138913;-61
2022/02/19 14:29:21;;;;;;;9.90;4.30;;;;;;;9.34;36.42;98559.02;231846;1228;138412;-59
2022/02/19 14:34:24;;;;;;;3.90;1.40;;;;;;;9.40;37.08;98568.59;231952;1228;138048;-59
2022/02/19 14:39:30;;;;;;;5.20;1.60;;;;;;;9.26;36.93;98575.98;231839;1228;138556;-58
2022/02/19 14:44:33;;;;;;;;;;;;;;;9.07;36.96;98583.44;231934;1228;138497;-60
2022/02/19 14:49:36;;;;;;;3.30;1.10;;;;;;;8.97;37.37;98579.45;231942;1227;125222;-59
2022/02/19 14:54:40;;;;;;;5.40;1.40;;;;;;;8.92;37.19;98579.90;231881;1227;138277;-60
2022/02/19 14:59:43;;;;;;;4.30;1.60;;;;;;;8.98;37.64;98578.81;231918;1228;138664;-58
2022/02/19 15:04:46;;;;;;;5.30;1.80;;;;;;;9.03;37.32;98584.23;231969;1227;138758;-59
2022/02/19 15:10:09;;;;;;;4.90;1.30;;;;;;;9.03;37.26;98581.23;231760;1228;139281;-59
2022/02/19 15:15:15;;;;;;;3.00;1.20;;;;;;;9.01;36.70;98582.57;231865;1228;139529;-59
2022/02/19 15:20:18;;;;;;;;;;;;;;;9.01;36.46;98589.43;231862;1228;137920;-59
2022/02/19 15:25:21;;;;;;;3.00;1.20;;;;;;;8.99;36.38;98598.03;231951;1228;124955;-60
2022/02/19 15:30:24;;;;;;;17.30;7.40;;;;;;;9.03;36.55;98608.27;231862;1228;138811;-59
2022/02/19 15:35:28;;;;;;;3.30;1.60;;;;;;;9.08;36.72;98611.69;231825;1228;139169;-60
2022/02/19 15:40:31;;;;;;;5.50;1.60;;;;;;;8.99;36.65;98620.73;231423;1228;138565;-61
2022/02/19 15:45:35;;;;;;;4.70;1.40;;;;;;;8.88;36.76;98624.42;231277;1228;140496;-61
2022/02/19 15:50:38;;;;;;;4.60;1.40;;;;;;;8.77;37.08;98627.92;230934;1228;139287;-58
2022/02/19 15:55:41;;;;;;;2.70;1.20;;;;;;;8.69;36.48;98630.34;231214;1229;138367;-59
2022/02/19 16:00:44;;;;;;;4.20;1.50;;;;;;;8.65;36.83;98632.55;231148;1228;138593;-58
2022/02/19 16:05:47;;;;;;;3.00;1.30;;;;;;;8.64;36.69;98641.44;231254;1229;138505;-57
2022/02/19 16:10:50;;;;;;;3.40;1.20;;;;;;;8.59;36.40;98645.08;231333;1229;138579;-59
2022/02/19 16:15:53;;;;;;;2.80;1.40;;;;;;;8.59;36.19;98657.46;231273;1228;138340;-57
2022/02/19 16:20:56;;;;;;;6.20;1.70;;;;;;;8.55;35.70;98660.18;231218;1229;138849;-60
2022/02/19 16:26:01;;;;;;;6.10;1.80;;;;;;;8.50;35.50;98671.81;231247;1229;139381;-58
2022/02/19 16:31:04;;;;;;;2.80;1.30;;;;;;;8.46;35.53;98678.41;231282;1228;138466;-59
2022/02/19 16:36:09;;;;;;;4.70;1.80;;;;;;;8.45;35.06;98692.08;231375;1228;138709;-59
2022/02/19 16:41:12;;;;;;;100.50;66.90;;;;;;;8.45;35.26;98698.99;231366;1228;138330;-57
2022/02/19 16:46:15;;;;;;;14.40;5.80;;;;;;;8.58;35.29;98705.10;231198;1228;139622;-59
2022/02/19 16:51:18;;;;;;;6.20;2.60;;;;;;;8.59;35.17;98718.67;231269;1225;140874;-59
2022/02/19 16:56:25;;;;;;;6.70;2.30;;;;;;;8.51;35.11;98726.02;231196;1228;138566;-59
2022/02/19 17:01:28;;;;;;;5.00;2.50;;;;;;;8.45;35.45;98735.02;231224;1228;139347;-57
2022/02/19 17:06:31;;;;;;;6.40;2.10;;;;;;;8.40;35.05;98747.89;231234;1228;137979;-60
2022/02/19 17:11:36;;;;;;;5.30;2.30;;;;;;;8.34;35.04;98761.63;231263;1228;138562;-61
2022/02/19 17:16:39;;;;;;;6.10;2.10;;;;;;;8.27;35.38;98771.73;231459;1228;139878;-59
2022/02/19 17:21:42;;;;;;;7.10;2.50;;;;;;;8.24;35.47;98784.13;231289;1228;138910;-59
2022/02/19 17:26:46;;;;;;;5.20;2.20;;;;;;;8.18;35.57;98787.96;231226;1229;138461;-61
2022/02/19 17:31:49;;;;;;;6.10;2.30;;;;;;;8.14;35.64;98795.65;231325;1229;138327;-59
2022/02/19 17:36:52;;;;;;;94.70;62.20;;;;;;;8.02;36.06;98799.98;231279;1228;138188;-60
2022/02/19 17:41:55;;;;;;;9.70;4.00;;;;;;;8.07;36.47;98809.81;231304;1228;138947;-60
2022/02/19 17:46:59;;;;;;;11.70;4.90;;;;;;;7.98;36.21;98819.67;231293;1228;139643;-61
2022/02/19 17:52:02;;;;;;;10.10;3.10;;;;;;;7.91;36.25;98825.91;231447;1227;138652;-62
2022/02/19 17:57:06;;;;;;;7.30;2.80;;;;;;;7.84;36.24;98834.02;231238;1227;138637;-59
2022/02/19 18:02:10;;;;;;;8.80;3.00;;;;;;;7.77;36.63;98837.38;231249;1228;138366;-60
2022/02/19 18:07:13;;;;;;;8.60;3.20;;;;;;;7.75;36.41;98851.65;231277;1229;139086;-59
2022/02/19 18:12:17;;;;;;;8.90;2.90;;;;;;;7.70;36.97;98851.89;231222;1229;138300;-59
2022/02/19 18:17:20;;;;;;;6.50;3.20;;;;;;;7.64;36.82;98857.36;231257;1227;138647;-58
2022/02/19 18:22:23;;;;;;;8.70;3.50;;;;;;;7.59;37.08;98858.52;231387;1229;138366;-60
2022/02/19 18:27:27;;;;;;;8.50;4.00;;;;;;;7.49;37.12;98859.89;231211;1228;138328;-60
2022/02/19 18:32:34;;;;;;;9.20;4.00;;;;;;;7.41;37.27;98871.10;231288;1229;138231;-60
2022/02/19 18:37:37;;;;;;;10.10;4.60;;;;;;;7.39;37.85;98874.55;231276;1229;139007;-61
2022/02/19 18:42:40;;;;;;;146.10;102.00;;;;;;;7.56;38.59;98881.79;231256;1229;139143;-61
2022/02/19 18:48:03;;;;;;;17.50;6.90;;;;;;;7.82;38.47;98882.37;231318;1228;139162;-61
2022/02/19 18:53:08;;;;;;;11.00;5.10;;;;;;;7.75;37.97;98886.44;231437;1229;138922;-61
2022/02/19 18:58:11;;;;;;;9.60;4.00;;;;;;;7.58;37.67;98884.52;231260;1228;139069;-61
2022/02/19 19:03:15;;;;;;;11.10;3.50;;;;;;;7.45;37.89;98886.95;231212;1228;139529;-61
2022/02/19 19:08:18;;;;;;;8.10;3.60;;;;;;;7.35;37.89;98896.83;231344;1228;138560;-60
2022/02/19 19:13:21;;;;;;;10.30;3.90;;;;;;;7.27;37.86;98903.74;231257;1229;140444;-60
2022/02/19 19:18:24;;;;;;;8.50;3.70;;;;;;;7.22;37.97;98908.77;231364;1228;138580;-61
2022/02/19 19:23:27;;;;;;;7.60;3.40;;;;;;;7.19;38.30;98911.71;231249;1229;139678;-60
2022/02/19 19:28:31;;;;;;;7.40;3.60;;;;;;;7.19;38.18;98912.45;231408;1229;138632;-62
2022/02/19 19:33:34;;;;;;;7.40;3.40;;;;;;;7.18;38.37;98918.33;231402;1229;139426;-60
2022/02/19 19:38:39;;;;;;;10.50;3.90;;;;;;;7.15;38.30;98924.66;231336;1229;138409;-62
2022/02/19 19:43:42;;;;;;;8.50;3.80;;;;;;;7.11;38.42;98941.42;231326;1228;138911;-62
2022/02/19 19:48:45;;;;;;;12.20;4.10;;;;;;;7.06;38.48;98945.38;231425;1228;138456;-60
2022/02/19 19:53:52;;;;;;;15.20;5.00;;;;;;;7.01;38.27;98953.02;231321;1228;138775;-60
2022/02/19 19:58:56;;;;;;;14.00;5.70;;;;;;;6.94;38.51;98959.21;231427;1228;139224;-60
2022/02/19 20:03:59;;;;;;;16.20;6.80;;;;;;;6.89;38.74;98963.67;231296;1228;139962;-60
2022/02/19 20:09:03;;;;;;;16.40;6.90;;;;;;;6.85;38.69;98970.91;231303;1228;138740;-59
2022/02/19 20:14:06;;;;;;;16.70;6.80;;;;;;;6.79;38.83;98978.04;231331;1228;138563;-58
2022/02/19 20:19:10;;;;;;;20.30;7.30;;;;;;;6.73;38.98;98983.81;231267;1228;138642;-60
2022/02/19 20:24:13;;;;;;;19.30;7.40;;;;;;;6.67;39.03;98986.05;231324;1228;138734;-60
2022/02/19 20:29:17;;;;;;;17.10;6.90;;;;;;;6.61;39.09;98978.23;231302;1229;138366;-61
2022/02/19 20:34:20;;;;;;;14.10;5.80;;;;;;;6.55;39.36;98971.27;231217;1230;138888;-62
2022/02/19 20:39:23;;;;;;;15.40;5.80;;;;;;;6.44;39.16;98972.30;231318;1228;138657;-61
2022/02/19 20:44:26;;;;;;;16.30;6.30;;;;;;;6.30;39.42;98981.38;231181;1229;139085;-59
2022/02/19 20:49:29;;;;;;;11.60;5.70;;;;;;;6.22;39.54;98988.84;231209;1228;138772;-63
2022/02/19 20:54:32;;;;;;;16.70;6.50;;;;;;;6.12;39.79;98989.96;231271;1228;138628;-63
2022/02/19 20:59:37;;;;;;;13.10;6.20;;;;;;;6.06;39.85;98988.69;231235;1229;138370;-63
2022/02/19 21:04:40;;;;;;;16.90;6.60;;;;;;;5.99;40.15;98991.44;231544;1228;138828;-62
2022/02/19 21:09:43;;;;;;;13.20;6.00;;;;;;;5.96;40.32;98998.45;231347;1228;138720;-61
2022/02/19 21:14:46;;;;;;;15.10;6.50;;;;;;;5.89;40.69;98995.88;231352;1228;138491;-63
2022/02/19 21:19:49;;;;;;;16.30;6.90;;;;;;;5.87;40.73;99005.12;231309;1228;138045;-62
2022/02/19 21:24:52;;;;;;;18.30;7.00;;;;;;;5.82;40.69;99005.86;231282;1229;138734;-61
2022/02/19 21:29:55;;;;;;;15.60;6.70;;;;;;;5.78;40.71;99003.77;231311;1229;138702;-60
2022/02/19 21:34:59;;;;;;;21.60;7.20;;;;;;;5.76;40.80;99011.93;231425;1228;138444;-62
2022/02/19 21:40:06;;;;;;;19.90;7.30;;;;;;;5.72;41.01;99008.41;231314;1230;138751;-60
2022/02/19 21:45:09;;;;;;;27.70;8.20;;;;;;;5.63;41.13;99006.54;231176;1229;139529;-61
2022/02/19 21:50:13;;;;;;;22.30;7.90;;;;;;;5.51;41.35;99002.65;231308;1229;139406;-61
2022/02/19 21:55:16;;;;;;;21.70;7.40;;;;;;;5.41;41.48;98997.42;231424;1229;138489;-59
2022/02/19 22:00:19;;;;;;;17.90;7.40;;;;;;;5.37;41.70;99000.90;231264;1228;139168;-61
2022/02/19 22:05:23;;;;;;;18.90;8.30;;;;;;;5.37;41.85;99003.38;231493;1228;138488;-62
2022/02/19 22:10:26;;;;;;;22.80;8.60;;;;;;;5.41;41.91;99006.92;231272;1229;138794;-63
2022/02/19 22:15:29;;;;;;;24.00;8.50;;;;;;;5.50;41.84;99008.49;231174;1228;138564;-62
2022/02/19 22:20:33;;;;;;;18.80;7.80;;;;;;;5.52;41.79;99007.85;231321;1230;138859;-64
2022/02/19 22:25:36;;;;;;;21.80;8.50;;;;;;;5.55;41.71;99012.66;231309;1229;138994;-61
2022/02/19 22:30:39;;;;;;;20.50;8.30;;;;;;;5.58;41.80;99019.21;231285;1228;138637;-63
2022/02/19 22:35:42;;;;;;;22.90;8.30;;;;;;;5.61;41.72;99011.16;231307;1229;139527;-62
2022/02/19 22:40:45;;;;;;;20.20;9.00;;;;;;;5.57;41.64;99008.36;231382;1230;139211;-61
2022/02/19 22:45:49;;;;;;;21.10;8.10;;;;;;;5.56;41.80;99010.50;231259;1229;138522;-58
2022/02/19 22:50:52;;;;;;;21.90;9.50;;;;;;;5.60;41.90;99015.46;231292;1229;138285;-60
2022/02/19 22:55:55;;;;;;;24.10;9.00;;;;;;;5.65;41.81;99004.85;231314;1230;137944;-55
2022/02/19 23:01:04;;;;;;;25.90;9.70;;;;;;;5.63;41.79;99004.05;231258;1230;139181;-55
2022/02/19 23:06:07;;;;;;;25.80;9.70;;;;;;;5.55;41.74;98998.23;231307;1228;138927;-59
2022/02/19 23:11:10;;;;;;;24.20;9.90;;;;;;;5.42;41.78;99000.35;231360;1229;140083;-60
2022/02/19 23:16:13;;;;;;;24.90;10.40;;;;;;;5.24;41.91;98997.58;231311;1229;139328;-61
2022/02/19 23:21:22;;;;;;;26.20;10.60;;;;;;;5.14;42.10;98995.53;231304;1230;140114;-61
2022/02/19 23:26:26;;;;;;;26.70;11.30;;;;;;;5.05;42.42;98991.16;231314;1229;139193;-60
2022/02/19 23:31:30;;;;;;;24.50;10.50;;;;;;;5.00;42.48;98982.94;231248;1230;138767;-61
2022/02/19 23:36:35;;;;;;;26.40;10.70;;;;;;;5.03;42.64;98981.04;231284;1229;139243;-63
2022/02/19 23:41:38;;;;;;;24.40;10.30;;;;;;;5.07;42.83;98983.70;231314;1230;139242;-59
2022/02/19 23:46:41;;;;;;;27.60;10.50;;;;;;;5.06;42.82;98982.67;231403;1229;139757;-57
2022/02/19 23:51:45;;;;;;;24.40;10.50;;;;;;;5.03;43.00;98978.92;231283;1230;139342;-60
2022/02/19 23:56:50;;;;;;;27.70;11.40;;;;;;;4.96;42.99;98976.93;231292;1230;142002;-60
